Terminal Aerodrome Forecast
Issued by NWS

Home | Current Version | Previous Version | Text Only | Print | Product List | Glossary On
Versions: 1 2 3 4 5 6 7 8 9 10 11 12 13 14 15 16
000
FTUS43 KSGF 310520
TAFBBG
TAF
KBBG 310520Z 3106/0106 VRB03KT P6SM FEW050
     FM310800 VRB03KT 6SM BR SCT050
      TEMPO 3109/3113 5SM -TSRA BR BKN045CB
     FM311500 16006KT P6SM FEW050=

USA.gov is the U.S. government's official web portal to all federal, state and local government web resources and services.